»·PEaware :: SWA2101 KSJC-KBUR

SWA2101 :: KSJC-KBUR

FLIGHT INFORMATION

Flight Status: Arrived
Operator:
Southwest Airlines
More flights by this operator :: More flights under this callsign
Pilot: Kaleb W. (11686)
Aircraft: BOEING 737-800
(B738)
More flights by this aircraft type
Origin: KSJC Mineta San Jose Intl
United States
Destination: KBUR Bob Hope-Burbank
United States
More flights between these airports :: More routes between these airports
Route: SPTNS1 EBAYE BURGL HONZK ROKKR2
File this flight plan on PilotEdge
Remarks: RMK / SIMBRIEF
Altitude:
(Current/Filed)
35,000ft
Speed:
(Current/Filed)
450kts
Departed: 29-Jan-22 06:03 PM
Arrived: 29-Jan-22 06:55 PM
Distance/Time
Traveled:
258nm/0:52
Distance/Time
To Go:
Arrived

Flight Plot

Page will automatically refresh every two minutes.

Flight plan parsing failed; only flown route is shown


Map Options




Map Legend


Flown Route
Filed Route
Departure Airport
Arrival Airport
Navaid (VOR, NDB)
Fix

Horizontal Profiles

Position Reports

Time Latitude Longitude Heading Altitude Ground
Speed
29-Jan-22 17:36 37.365310 -121.925664 49 49ft 0kts
29-Jan-22 17:37 37.365310 -121.925664 49 49ft 0kts
29-Jan-22 17:38 37.365310 -121.925664 49 49ft 0kts
29-Jan-22 17:39 37.365310 -121.925664 49 49ft 0kts
29-Jan-22 17:40 37.365310 -121.925664 49 49ft 0kts
29-Jan-22 17:41 37.365310 -121.925664 49 49ft 0kts
29-Jan-22 17:42 37.365310 -121.925664 49 49ft 0kts
29-Jan-22 17:43 37.365310 -121.925664 49 49ft 0kts
29-Jan-22 17:44 37.365310 -121.925664 49 49ft 0kts
29-Jan-22 17:45 37.365310 -121.925664 49 49ft 0kts
29-Jan-22 17:46 37.365310 -121.925664 49 49ft 0kts
29-Jan-22 17:48 37.365310 -121.925664 49 49ft 0kts
29-Jan-22 17:49 37.365310 -121.925664 49 49ft 0kts
29-Jan-22 17:50 37.365310 -121.925664 49 49ft 0kts
29-Jan-22 17:51 37.365310 -121.925665 49 49ft 0kts
29-Jan-22 17:52 37.365311 -121.926190 143 49ft 1kts
29-Jan-22 17:53 37.365345 -121.926223 139 49ft 0kts
29-Jan-22 17:54 37.365345 -121.926223 139 49ft 0kts
29-Jan-22 17:55 37.365345 -121.926223 139 49ft 0kts
29-Jan-22 17:56 37.365345 -121.926223 139 49ft 0kts
29-Jan-22 17:57 37.363531 -121.924949 139 52ft 19kts
29-Jan-22 17:58 37.358507 -121.919428 138 58ft 25kts
29-Jan-22 17:59 37.353647 -121.914246 158 65ft 12kts
29-Jan-22 18:00 37.353127 -121.914452 225 65ft 0kts
29-Jan-22 18:01 37.353127 -121.914452 225 65ft 0kts
29-Jan-22 18:02 37.352618 -121.915412 266 65ft 5kts
29-Jan-22 18:03 37.357495 -121.920966 318 60ft 122kts
29-Jan-22 18:04 37.395748 -121.962756 318 2202ft 227kts
29-Jan-22 18:05 37.455316 -121.965449 56 5050ft 276kts
29-Jan-22 18:06 37.431423 -121.883804 140 5011ft 274kts
29-Jan-22 18:07 37.370491 -121.826720 143 5009ft 274kts
29-Jan-22 18:08 37.310773 -121.767312 137 5009ft 273kts
29-Jan-22 18:08 37.263586 -121.714112 137 5158ft 281kts
29-Jan-22 18:10 37.195737 -121.636845 137 9801ft 291kts
29-Jan-22 18:11 37.130034 -121.563018 137 12158ft 345kts
29-Jan-22 18:12 37.057194 -121.481204 137 15201ft 362kts
29-Jan-22 18:13 36.979170 -121.398005 137 17971ft 377kts
29-Jan-22 18:13 36.911489 -121.325966 138 19214ft 388kts
29-Jan-22 18:14 36.829917 -121.239342 138 19701ft 388kts
29-Jan-22 18:16 36.732292 -121.135974 137 22395ft 403kts
29-Jan-22 18:17 36.646008 -121.044919 137 24504ft 412kts
29-Jan-22 18:17 36.572152 -120.968228 138 26111ft 420kts
29-Jan-22 18:18 36.481406 -120.876090 138 27837ft 429kts
29-Jan-22 18:19 36.386591 -120.780012 138 29139ft 444kts
29-Jan-22 18:20 36.289558 -120.681993 138 29195ft 455kts
29-Jan-22 18:21 36.191962 -120.583735 138 29197ft 453kts
29-Jan-22 18:22 36.093953 -120.485361 138 29192ft 454kts
29-Jan-22 18:23 35.996212 -120.387596 138 29204ft 453kts
29-Jan-22 18:24 35.898051 -120.289841 140 29204ft 454kts
29-Jan-22 18:25 35.792995 -120.203294 146 29195ft 456kts
29-Jan-22 18:26 35.684552 -120.123226 150 29192ft 457kts
29-Jan-22 18:27 35.567900 -120.064375 157 29192ft 453kts
29-Jan-22 18:28 35.449991 -120.009965 157 29182ft 454kts
29-Jan-22 18:29 35.331854 -119.956284 157 29181ft 452kts
29-Jan-22 18:30 35.213861 -119.902991 157 29177ft 452kts
29-Jan-22 18:31 35.100197 -119.843727 145 28119ft 433kts
29-Jan-22 18:32 35.008748 -119.755000 137 25759ft 411kts
29-Jan-22 18:33 34.922454 -119.666926 138 23461ft 407kts
29-Jan-22 18:34 34.844498 -119.571068 128 21455ft 390kts
29-Jan-22 18:35 34.775267 -119.469629 127 19183ft 386kts
29-Jan-22 18:36 34.710666 -119.371425 126 17988ft 372kts
29-Jan-22 18:37 34.646935 -119.273799 124 15584ft 363kts
29-Jan-22 18:38 34.596458 -119.174083 119 13713ft 327kts
29-Jan-22 18:39 34.551126 -119.082895 123 11991ft 300kts
29-Jan-22 18:40 34.489093 -119.018503 141 10744ft 286kts
29-Jan-22 18:41 34.426960 -118.960919 139 9673ft 269kts
29-Jan-22 18:42 34.374706 -118.908960 138 8657ft 222kts
29-Jan-22 18:43 34.331332 -118.861664 135 8055ft 191kts
29-Jan-22 18:44 34.293707 -118.820395 135 7222ft 180kts
29-Jan-22 18:45 34.261914 -118.775288 114 6586ft 185kts
29-Jan-22 18:46 34.238388 -118.713173 111 4270ft 200kts
29-Jan-22 18:47 34.219646 -118.662229 111 3570ft 153kts
29-Jan-22 18:48 34.202446 -118.615414 111 2920ft 152kts
29-Jan-22 18:49 34.199928 -118.567066 86 2873ft 143kts
29-Jan-22 18:50 34.199640 -118.518732 87 2865ft 144kts
29-Jan-22 18:51 34.199110 -118.470160 87 2397ft 145kts
29-Jan-22 18:52 34.198549 -118.421371 87 1617ft 145kts
29-Jan-22 18:53 34.198031 -118.372358 89 841ft 145kts
29-Jan-22 18:54 34.198550 -118.350717 15 702ft 0kts
29-Jan-22 18:55 34.198622 -118.350708 358 702ft 5kts
29-Jan-22 18:56 34.198285 -118.352713 149 706ft 9kts
29-Jan-22 18:57 34.196972 -118.355534 224 710ft 6kts
29-Jan-22 18:58 34.196102 -118.354937 124 708ft 0kts
29-Jan-22 18:59 34.196102 -118.354937 124 708ft 0kts
29-Jan-22 19:00 34.196102 -118.354937 124 708ft 0kts
29-Jan-22 19:01 34.196102 -118.354937 124 708ft 0kts
29-Jan-22 19:02 34.196102 -118.354937 124 708ft 0kts
29-Jan-22 19:03 34.196102 -118.354937 124 708ft 0kts

Navigation Log

Ident Type
Flight plan parsing failed, navigation log unavailable